Time;durP1;ratioP1;P1;durP2;ratioP2;P2;SDS_P1;SDS_P2;PMS_P1;PMS_P2;Temp;Humidity;BMP_temperature;BMP_pressure;BME280_temperature;BME280_humidity;BME280_pressure;Samples;Min_cycle;Max_cycle;Signal;HPM_P1;HPM_P2
2021/12/02 00:00:00;;;;;;;10.48;1.67;;;3.50;99.90;;;;;;4978094;28;20080;-73
2021/12/02 00:02:27;;;;;;;11.98;1.77;;;3.60;99.90;;;;;;4978506;28;20042;-73
2021/12/02 00:04:52;;;;;;;9.70;1.42;;;3.60;99.90;;;;;;4997229;28;20096;-73
2021/12/02 00:07:18;;;;;;;11.00;2.85;;;3.60;99.90;;;;;;4975154;28;20046;-73
2021/12/02 00:09:46;;;;;;;10.55;1.50;;;3.60;99.90;;;;;;4992181;28;20061;-74
2021/12/02 00:12:11;;;;;;;9.88;1.58;;;3.60;99.90;;;;;;4996044;28;20042;-73
2021/12/02 00:14:43;;;;;;;7.80;2.10;;;3.60;99.90;;;;;;5010983;28;20034;-73
2021/12/02 00:17:29;;;;;;;10.68;1.90;;;3.60;99.90;;;;;;5009398;28;20137;-73
2021/12/02 00:23:10;;;;;;;8.43;1.95;;;3.50;99.90;;;;;;4990764;28;20516;-73
2021/12/02 00:25:35;;;;;;;7.35;1.63;;;3.50;99.90;;;;;;4991048;28;20081;-73
2021/12/02 00:28:02;;;;;;;9.52;2.47;;;3.60;99.90;;;;;;4993060;28;20085;-73
2021/12/02 00:30:29;;;;;;;6.90;1.60;;;3.60;99.90;;;;;;4993138;28;20041;-73
2021/12/02 00:32:56;;;;;;;7.97;1.50;;;3.50;99.90;;;;;;4992231;28;20042;-73
2021/12/02 00:35:23;;;;;;;9.25;1.48;;;3.60;99.90;;;;;;4992159;28;20031;-74
2021/12/02 00:37:49;;;;;;;8.68;1.17;;;3.60;99.90;;;;;;4988451;28;20046;-73
2021/12/02 00:40:15;;;;;;;6.55;1.20;;;3.60;99.90;;;;;;4988349;28;20042;-73
2021/12/02 00:42:42;;;;;;;9.20;1.30;;;3.60;99.90;;;;;;4988607;28;20049;-73
2021/12/02 00:45:08;;;;;;;4.97;1.10;;;3.60;99.90;;;;;;4987965;28;20118;-73
2021/12/02 00:47:36;;;;;;;7.63;1.60;;;3.60;99.90;;;;;;4987965;28;20404;-73
2021/12/02 00:50:03;;;;;;;7.65;1.17;;;3.50;99.90;;;;;;5004418;28;20061;-73
2021/12/02 01:10:54;;;;;;;6.07;1.25;;;3.40;99.90;;;;;;4986971;28;20077;-73
2021/12/02 01:13:20;;;;;;;7.20;1.38;;;3.40;99.90;;;;;;4990323;28;20497;-72
2021/12/02 01:15:46;;;;;;;8.18;1.40;;;3.30;99.90;;;;;;4988452;28;20045;-73
2021/12/02 01:18:12;;;;;;;4.03;1.10;;;3.30;99.90;;;;;;4987659;28;20049;-73
2021/12/02 01:20:39;;;;;;;4.63;1.15;;;3.30;99.90;;;;;;4967858;28;20034;-73
2021/12/02 01:23:06;;;;;;;7.50;1.25;;;3.30;99.90;;;;;;4985168;28;20042;-73
2021/12/02 01:25:34;;;;;;;5.05;1.15;;;3.20;99.90;;;;;;4986921;28;20046;-73
2021/12/02 01:28:00;;;;;;;5.80;1.00;;;3.10;99.90;;;;;;4985049;28;20623;-73
2021/12/02 01:30:28;;;;;;;6.85;1.10;;;3.10;99.90;;;;;;4985026;28;20077;-73
2021/12/02 01:33:03;;;;;;;8.02;1.40;;;3.10;99.90;;;;;;4988030;28;20393;-73
2021/12/02 01:35:30;;;;;;;5.03;1.08;;;3.00;99.90;;;;;;4985183;28;20042;-72
2021/12/02 01:37:56;;;;;;;6.93;0.98;;;3.00;99.90;;;;;;4968658;28;20035;-73
2021/12/02 01:40:22;;;;;;;8.02;1.20;;;2.90;99.90;;;;;;4987879;28;20042;-73
2021/12/02 01:42:52;;;;;;;5.60;1.10;;;2.90;99.90;;;;;;4986002;28;20366;-73
2021/12/02 01:45:24;;;;;;;6.75;1.58;;;2.90;99.90;;;;;;4986216;28;20469;-74
2021/12/02 01:47:52;;;;;;;6.82;1.13;;;2.90;99.90;;;;;;4984090;28;20459;-74
2021/12/02 01:50:21;;;;;;;6.18;1.27;;;3.00;99.90;;;;;;5001136;28;20373;-74
2021/12/02 01:52:56;;;;;;;8.75;1.10;;;3.00;99.90;;;;;;4986569;28;20046;-74
2021/12/02 01:55:22;;;;;;;9.20;1.40;;;3.10;99.90;;;;;;4986793;28;20453;-74
2021/12/02 01:57:59;;;;;;;6.05;1.30;;;3.20;99.90;;;;;;4984658;28;20392;-74
2021/12/02 02:00:33;;;;;;;6.30;1.10;;;3.30;99.90;;;;;;5001760;28;21123;-74
2021/12/02 02:03:00;;;;;;;3.88;1.00;;;3.40;99.90;;;;;;4984570;28;20038;-74
2021/12/02 02:05:27;;;;;;;5.78;1.15;;;3.60;99.90;;;;;;4986970;28;20128;-74
2021/12/02 02:08:06;;;;;;;4.90;1.10;;;3.70;99.90;;;;;;4985625;28;20077;-73
2021/12/02 02:10:35;;;;;;;3.78;0.80;;;3.70;99.90;;;;;;4983032;28;20076;-73
2021/12/02 02:13:10;;;;;;;4.70;1.23;;;3.60;99.90;;;;;;4984037;28;20719;-73
2021/12/02 02:15:46;;;;;;;3.72;0.80;;;3.50;99.90;;;;;;4984244;28;20659;-73
2021/12/02 02:18:18;;;;;;;3.08;0.85;;;3.40;99.90;;;;;;4985590;28;20077;-72
2021/12/02 02:21:01;;;;;;;3.88;0.80;;;3.30;99.90;;;;;;4985536;28;20409;-73
2021/12/02 02:23:29;;;;;;;4.03;1.10;;;3.20;99.90;;;;;;4973062;28;20060;-72
2021/12/02 02:25:56;;;;;;;3.35;0.57;;;3.00;99.90;;;;;;4990963;28;20050;-72
2021/12/02 02:28:23;;;;;;;3.20;0.63;;;2.90;99.90;;;;;;4974003;28;20053;-72
2021/12/02 02:30:49;;;;;;;3.72;0.80;;;2.90;99.90;;;;;;4987437;28;20050;-72
2021/12/02 02:33:17;;;;;;;2.30;0.80;;;2.80;99.90;;;;;;4990811;28;20030;-72
2021/12/02 02:35:43;;;;;;;5.13;0.85;;;2.80;99.90;;;;;;4989301;28;20042;-72
2021/12/02 02:38:10;;;;;;;4.13;0.85;;;2.80;99.90;;;;;;4986708;28;20089;-72
2021/12/02 02:40:40;;;;;;;5.57;0.70;;;2.70;99.90;;;;;;4990700;28;20038;-72
2021/12/02 02:43:08;;;;;;;6.18;0.80;;;2.60;99.90;;;;;;4984755;28;20404;-72
2021/12/02 02:45:37;;;;;;;7.20;0.93;;;2.50;99.90;;;;;;4988868;28;20054;-72
2021/12/02 02:48:04;;;;;;;2.90;0.65;;;2.50;99.90;;;;;;4987457;28;20456;-72
2021/12/02 02:50:31;;;;;;;6.03;1.40;;;2.40;99.90;;;;;;4989676;28;20046;-72
2021/12/02 02:53:04;;;;;;;3.38;0.80;;;2.40;99.90;;;;;;4988112;28;20440;-72
2021/12/02 02:55:32;;;;;;;3.78;1.20;;;2.30;99.90;;;;;;4990414;28;20050;-72
2021/12/02 02:58:26;;;;;;;4.63;0.90;;;2.30;99.90;;;;;;4987012;28;20493;-72
2021/12/02 03:01:04;;;;;;;1.70;0.80;;;2.30;99.90;;;;;;4988872;28;20484;-72
2021/12/02 03:03:42;;;;;;;3.15;0.70;;;2.20;99.90;;;;;;4990112;28;20048;-73
2021/12/02 03:09:01;;;;;;;3.53;0.80;;;2.10;99.90;;;;;;4986555;28;20383;-72
2021/12/02 03:11:36;;;;;;;5.68;1.00;;;2.00;99.90;;;;;;4989109;28;20286;-72
2021/12/02 03:14:10;;;;;;;5.15;1.00;;;2.10;99.90;;;;;;4986738;28;20413;-72
2021/12/02 03:16:45;;;;;;;3.58;0.82;;;2.10;99.90;;;;;;4987953;28;20042;-73
2021/12/02 03:19:21;;;;;;;3.58;1.00;;;2.10;99.90;;;;;;4985849;28;20037;-72
2021/12/02 03:21:47;;;;;;;3.60;0.90;;;2.10;99.90;;;;;;4982546;28;20512;-72
2021/12/02 03:24:12;;;;;;;2.47;0.82;;;2.10;99.90;;;;;;4980763;28;20046;-72
2021/12/02 03:26:38;;;;;;;4.40;1.10;;;2.00;99.90;;;;;;4983818;28;20088;-72
2021/12/02 03:29:04;;;;;;;3.10;0.95;;;2.00;99.90;;;;;;4982624;28;20034;-73
2021/12/02 03:31:31;;;;;;;2.90;0.90;;;2.10;99.90;;;;;;4984724;28;20046;-73
2021/12/02 03:33:57;;;;;;;3.33;1.20;;;2.10;99.90;;;;;;4984370;28;20045;-72
2021/12/02 03:36:22;;;;;;;3.83;1.00;;;2.10;99.90;;;;;;4984734;28;20125;-73
2021/12/02 03:38:49;;;;;;;2.80;1.00;;;2.00;99.90;;;;;;4985253;28;20471;-73
2021/12/02 03:41:15;;;;;;;2.92;0.80;;;2.00;99.90;;;;;;4985742;28;20117;-73
2021/12/02 03:43:43;;;;;;;1.55;0.68;;;2.00;99.90;;;;;;4986766;28;20046;-72
2021/12/02 03:46:12;;;;;;;6.10;1.10;;;2.10;99.90;;;;;;4985300;28;20093;-73
2021/12/02 03:48:38;;;;;;;3.65;1.08;;;2.00;99.90;;;;;;4986044;28;20046;-73
2021/12/02 03:51:05;;;;;;;6.88;0.80;;;2.00;99.90;;;;;;4986423;28;20128;-73
2021/12/02 03:53:31;;;;;;;5.00;0.95;;;2.00;99.90;;;;;;5002715;28;20050;-72
2021/12/02 03:55:57;;;;;;;3.72;0.80;;;2.00;99.90;;;;;;4984869;28;20097;-72
2021/12/02 03:58:23;;;;;;;6.10;1.00;;;2.10;99.90;;;;;;4988152;28;20042;-72
2021/12/02 04:00:48;;;;;;;3.53;1.00;;;2.10;99.90;;;;;;4986488;28;20082;-73
2021/12/02 04:03:14;;;;;;;4.05;1.00;;;2.10;99.90;;;;;;4985581;28;20038;-73
2021/12/02 04:05:40;;;;;;;5.63;0.95;;;2.20;99.90;;;;;;4984812;28;20040;-73
2021/12/02 04:08:06;;;;;;;5.18;1.00;;;2.20;99.90;;;;;;4987673;28;20042;-73
2021/12/02 04:10:33;;;;;;;6.10;1.00;;;2.30;99.90;;;;;;4987445;28;20061;-73
2021/12/02 04:15:40;;;;;;;6.57;1.98;;;2.40;99.90;;;;;;4982536;28;20137;-72
2021/12/02 04:18:09;;;;;;;6.90;0.80;;;2.40;99.90;;;;;;4972430;28;20101;-72
2021/12/02 04:20:37;;;;;;;3.63;0.70;;;2.50;99.90;;;;;;4928503;28;20109;-73
2021/12/02 04:23:05;;;;;;;3.00;1.20;;;2.40;99.90;;;;;;4972924;28;20082;-73
2021/12/02 04:25:32;;;;;;;3.75;1.05;;;2.40;99.90;;;;;;4987654;28;20054;-73
2021/12/02 04:27:58;;;;;;;4.13;0.90;;;2.50;99.90;;;;;;4975895;28;20046;-72
2021/12/02 04:30:26;;;;;;;5.78;1.10;;;2.40;99.90;;;;;;4989205;28;20484;-73
2021/12/02 04:32:52;;;;;;;6.93;0.88;;;2.40;99.90;;;;;;4987997;28;20163;-73
2021/12/02 04:35:18;;;;;;;3.70;1.10;;;2.40;99.90;;;;;;5001110;28;20089;-74
2021/12/02 04:37:45;;;;;;;3.95;0.90;;;2.40;99.90;;;;;;4987226;28;20046;-74
2021/12/02 04:40:15;;;;;;;3.22;0.88;;;2.40;99.90;;;;;;4988903;28;20121;-73
2021/12/02 04:42:42;;;;;;;3.35;0.88;;;2.30;99.90;;;;;;4985091;28;20781;-73
2021/12/02 04:45:09;;;;;;;3.20;0.80;;;2.20;99.90;;;;;;4988600;28;20042;-73
2021/12/02 04:47:35;;;;;;;6.93;0.80;;;2.20;99.90;;;;;;4988847;28;20038;-74
2021/12/02 04:50:01;;;;;;;5.45;0.95;;;2.20;99.90;;;;;;4985590;28;20520;-74
2021/12/02 04:52:26;;;;;;;3.95;0.80;;;2.20;99.90;;;;;;4968866;28;20038;-74
2021/12/02 04:54:52;;;;;;;4.43;1.17;;;2.20;99.90;;;;;;4985308;28;20046;-74
2021/12/02 04:57:18;;;;;;;3.97;0.80;;;2.20;99.90;;;;;;5004278;28;20034;-74
2021/12/02 04:59:44;;;;;;;2.22;0.88;;;2.10;99.90;;;;;;4988653;28;20599;-74
2021/12/02 05:02:11;;;;;;;3.97;0.95;;;2.10;99.90;;;;;;4988143;28;20089;-73
2021/12/02 05:04:44;;;;;;;2.67;0.90;;;2.10;99.90;;;;;;4986737;28;20057;-73
2021/12/02 05:07:27;;;;;;;2.78;1.00;;;2.10;99.90;;;;;;4993335;28;20065;-73
2021/12/02 05:09:59;;;;;;;7.57;0.90;;;2.10;99.90;;;;;;4965057;28;20042;-73
2021/12/02 05:12:25;;;;;;;3.78;0.75;;;2.10;99.90;;;;;;4992837;28;20046;-73
2021/12/02 05:14:51;;;;;;;4.72;0.80;;;2.10;99.90;;;;;;4991983;28;20061;-73
2021/12/02 05:17:16;;;;;;;7.18;1.60;;;2.10;99.90;;;;;;4990801;28;20047;-73
2021/12/02 05:19:42;;;;;;;2.92;0.70;;;2.10;99.90;;;;;;4987670;28;20050;-73
2021/12/02 05:22:08;;;;;;;4.50;0.70;;;2.10;99.90;;;;;;4986780;28;20074;-73
2021/12/02 05:24:34;;;;;;;3.75;0.75;;;2.10;99.90;;;;;;4986620;28;20493;-73
2021/12/02 05:27:00;;;;;;;3.00;0.60;;;2.10;99.90;;;;;;4985041;28;20385;-73
2021/12/02 05:29:25;;;;;;;4.28;0.80;;;2.10;99.90;;;;;;4987866;28;20065;-73
2021/12/02 05:31:51;;;;;;;1.88;0.50;;;2.10;99.90;;;;;;4986385;28;20058;-72
2021/12/02 05:34:17;;;;;;;1.83;0.90;;;2.00;99.90;;;;;;4987850;28;20073;-72
2021/12/02 05:36:43;;;;;;;6.15;0.50;;;2.00;99.90;;;;;;4986937;28;20444;-73
2021/12/02 05:39:08;;;;;;;3.55;0.50;;;2.00;99.90;;;;;;4985088;28;20521;-73
2021/12/02 05:41:34;;;;;;;1.20;0.63;;;1.90;99.90;;;;;;4985980;28;20493;-73
2021/12/02 05:44:00;;;;;;;1.75;1.05;;;1.90;99.90;;;;;;4987615;28;20088;-73
2021/12/02 05:46:27;;;;;;;2.72;0.60;;;1.90;99.90;;;;;;4983577;28;20034;-73
2021/12/02 05:48:53;;;;;;;4.55;0.77;;;1.90;99.90;;;;;;4988106;28;20695;-73
2021/12/02 05:51:18;;;;;;;3.20;0.80;;;1.90;99.90;;;;;;4989817;28;20053;-73
2021/12/02 05:53:44;;;;;;;2.45;0.50;;;1.90;99.90;;;;;;4990545;28;20046;-73
2021/12/02 05:56:10;;;;;;;2.70;0.60;;;1.90;99.90;;;;;;4987233;28;20054;-73
2021/12/02 05:58:35;;;;;;;1.23;0.70;;;1.90;99.90;;;;;;4971504;28;20041;-73
2021/12/02 06:01:01;;;;;;;2.75;0.82;;;1.90;99.90;;;;;;4986019;28;20086;-73
2021/12/02 06:03:27;;;;;;;2.00;0.70;;;1.90;99.90;;;;;;4986675;28;20046;-73
2021/12/02 06:05:53;;;;;;;1.67;0.60;;;2.00;99.90;;;;;;4987757;28;20070;-73
2021/12/02 06:08:18;;;;;;;1.52;0.60;;;1.90;99.90;;;;;;4988967;28;20591;-73
2021/12/02 06:10:45;;;;;;;4.07;0.80;;;1.90;99.90;;;;;;4973877;28;20501;-73
2021/12/02 06:13:11;;;;;;;4.05;0.70;;;2.00;99.90;;;;;;4982709;28;20074;-73
2021/12/02 06:15:37;;;;;;;7.40;0.70;;;1.90;99.90;;;;;;4981131;28;20073;-73
2021/12/02 06:18:02;;;;;;;2.78;0.80;;;1.90;99.90;;;;;;4985629;28;20042;-73
2021/12/02 06:20:28;;;;;;;2.13;0.80;;;1.90;99.90;;;;;;4984015;28;20736;-73
2021/12/02 06:22:54;;;;;;;3.97;0.80;;;1.90;99.90;;;;;;4983378;28;20521;-73
2021/12/02 06:27:47;;;;;;;5.88;0.80;;;1.90;99.90;;;;;;4981832;28;20497;-73
2021/12/02 06:30:15;;;;;;;4.28;0.90;;;2.00;99.90;;;;;;4982454;28;20125;-73
2021/12/02 06:32:41;;;;;;;3.78;0.90;;;2.00;99.90;;;;;;4981119;28;20050;-73
2021/12/02 06:35:08;;;;;;;4.43;0.88;;;2.00;99.90;;;;;;4986430;28;20512;-73
2021/12/02 06:37:33;;;;;;;2.30;0.77;;;2.00;99.90;;;;;;4983946;28;20088;-73
2021/12/02 06:39:59;;;;;;;3.80;1.05;;;2.00;99.90;;;;;;4986176;28;20930;-72
2021/12/02 06:42:25;;;;;;;6.07;1.25;;;2.00;99.90;;;;;;4985420;28;20057;-73
2021/12/02 06:44:50;;;;;;;5.20;0.80;;;2.10;99.90;;;;;;4972255;28;20398;-73
2021/12/02 06:47:16;;;;;;;2.88;0.82;;;2.10;99.90;;;;;;4971091;28;20045;-73
2021/12/02 06:49:42;;;;;;;1.73;0.70;;;2.10;99.90;;;;;;4987335;28;20097;-73
2021/12/02 06:52:11;;;;;;;7.15;0.80;;;2.20;99.90;;;;;;4984656;28;20041;-73
2021/12/02 06:54:38;;;;;;;4.38;0.80;;;2.20;99.90;;;;;;4983667;28;20042;-73
2021/12/02 06:57:04;;;;;;;2.78;0.68;;;2.20;99.90;;;;;;4979439;28;20215;-73
2021/12/02 06:59:30;;;;;;;2.75;0.63;;;2.20;99.90;;;;;;4987140;28;20068;-74
2021/12/02 07:01:56;;;;;;;2.22;0.60;;;2.30;99.90;;;;;;4985891;28;20451;-73
2021/12/02 07:04:22;;;;;;;2.70;0.52;;;2.30;99.90;;;;;;4983400;28;20432;-73
2021/12/02 07:06:47;;;;;;;1.55;0.57;;;2.30;99.90;;;;;;4984552;28;20081;-73
2021/12/02 07:09:13;;;;;;;1.95;0.43;;;2.30;99.90;;;;;;4985451;28;20521;-74
2021/12/02 07:11:39;;;;;;;1.70;0.60;;;2.30;99.90;;;;;;4983316;28;20129;-74
2021/12/02 07:14:09;;;;;;;4.38;0.63;;;2.30;99.90;;;;;;4986247;28;20441;-74
2021/12/02 07:16:37;;;;;;;2.45;0.70;;;2.30;99.90;;;;;;4970811;28;20093;-74
2021/12/02 07:19:08;;;;;;;2.63;0.68;;;2.30;99.90;;;;;;4984496;28;20125;-74
2021/12/02 07:21:37;;;;;;;0.77;0.65;;;2.20;99.90;;;;;;4982807;28;20046;-74
2021/12/02 07:24:03;;;;;;;4.70;0.82;;;2.20;99.90;;;;;;4971862;28;20038;-73
2021/12/02 07:26:32;;;;;;;2.97;0.80;;;2.20;99.90;;;;;;4983868;28;20100;-74
2021/12/02 07:28:58;;;;;;;1.95;0.80;;;2.10;99.90;;;;;;5002152;28;20038;-75
2021/12/02 07:31:29;;;;;;;2.45;1.08;;;2.10;99.90;;;;;;4985164;28;20100;-74
2021/12/02 07:33:57;;;;;;;2.67;1.17;;;2.20;99.90;;;;;;4985854;28;20043;-73
2021/12/02 07:36:24;;;;;;;2.95;1.17;;;2.20;99.90;;;;;;4984627;28;20045;-74
2021/12/02 07:38:50;;;;;;;2.28;1.20;;;2.20;99.90;;;;;;4984531;28;20093;-74
2021/12/02 07:41:16;;;;;;;2.75;1.48;;;2.20;99.90;;;;;;5003790;28;20038;-74
2021/12/02 07:43:42;;;;;;;2.60;1.40;;;2.20;99.90;;;;;;4978447;28;20489;-73
2021/12/02 07:46:09;;;;;;;1.40;1.30;;;2.20;99.90;;;;;;4987256;28;20046;-74
2021/12/02 07:48:36;;;;;;;4.40;2.75;;;2.30;99.90;;;;;;4988441;28;20050;-74
2021/12/02 07:51:08;;;;;;;3.53;1.48;;;2.30;99.90;;;;;;4986981;28;20057;-74
2021/12/02 07:53:34;;;;;;;5.10;3.97;;;2.30;99.90;;;;;;4984951;28;20072;-74
2021/12/02 07:56:03;;;;;;;5.43;2.13;;;2.30;99.90;;;;;;4984602;28;20050;-74
2021/12/02 07:58:30;;;;;;;2.30;1.58;;;2.30;99.90;;;;;;5005412;28;20053;-74
2021/12/02 08:01:01;;;;;;;3.08;1.90;;;2.30;99.90;;;;;;5002674;28;20042;-73
2021/12/02 08:03:27;;;;;;;2.85;1.77;;;2.30;99.90;;;;;;4975715;28;20034;-74
2021/12/02 08:05:53;;;;;;;3.60;2.08;;;2.30;99.90;;;;;;4989113;28;20049;-73
2021/12/02 08:08:19;;;;;;;5.32;2.38;;;2.30;99.90;;;;;;4976510;28;20125;-73
2021/12/02 08:10:45;;;;;;;4.55;2.05;;;2.30;99.90;;;;;;4991548;28;20213;-73
2021/12/02 08:13:13;;;;;;;5.55;2.22;;;2.20;99.90;;;;;;4985786;28;20058;-74
2021/12/02 08:15:39;;;;;;;3.08;1.80;;;2.20;99.90;;;;;;4992587;28;20050;-74
2021/12/02 08:18:06;;;;;;;4.47;2.30;;;2.20;99.90;;;;;;4990834;28;20536;-73
2021/12/02 08:20:32;;;;;;;5.30;2.10;;;2.20;99.90;;;;;;4983851;28;20112;-73
2021/12/02 08:22:58;;;;;;;4.03;2.55;;;2.20;99.90;;;;;;4992571;28;20046;-74
2021/12/02 08:25:26;;;;;;;3.47;2.22;;;2.30;99.90;;;;;;5010462;28;20050;-74
2021/12/02 08:27:52;;;;;;;8.32;7.50;;;2.30;99.90;;;;;;4992535;28;20054;-75
2021/12/02 08:30:23;;;;;;;4.10;2.70;;;2.40;99.90;;;;;;4992973;28;20046;-74
2021/12/02 08:32:49;;;;;;;6.13;5.15;;;2.50;99.90;;;;;;4991043;28;20177;-74
2021/12/02 08:35:15;;;;;;;3.05;1.83;;;2.60;99.90;;;;;;4993248;28;20113;-74
2021/12/02 08:37:44;;;;;;;2.75;1.75;;;2.60;99.90;;;;;;4989382;28;20045;-74
2021/12/02 08:40:19;;;;;;;4.13;1.55;;;2.60;99.90;;;;;;4989891;28;20049;-74
2021/12/02 08:42:46;;;;;;;3.47;1.65;;;2.70;99.90;;;;;;4992030;28;20159;-74
2021/12/02 08:45:12;;;;;;;1.98;1.33;;;2.80;99.90;;;;;;4981651;28;20334;-73
2021/12/02 08:47:44;;;;;;;2.25;1.33;;;2.80;99.90;;;;;;4989867;28;20137;-73
2021/12/02 08:50:11;;;;;;;1.25;1.10;;;2.90;99.90;;;;;;4971364;28;20050;-73
2021/12/02 08:52:37;;;;;;;1.63;0.80;;;2.90;99.90;;;;;;4984662;28;20417;-73
2021/12/02 08:55:03;;;;;;;3.22;0.90;;;2.90;99.90;;;;;;4974149;28;20053;-73
2021/12/02 08:57:29;;;;;;;2.05;0.60;;;2.90;99.90;;;;;;4987139;28;20042;-74
2021/12/02 08:59:54;;;;;;;2.33;0.75;;;2.90;99.90;;;;;;5002934;28;20046;-74
2021/12/02 09:02:21;;;;;;;2.60;0.70;;;2.90;99.90;;;;;;4991860;28;20121;-73
2021/12/02 09:04:47;;;;;;;1.75;0.70;;;2.90;99.90;;;;;;4991504;28;20045;-73
2021/12/02 09:07:13;;;;;;;5.63;3.05;;;2.90;99.90;;;;;;4980315;28;20039;-73
2021/12/02 09:09:54;;;;;;;9.25;7.95;;;2.90;99.90;;;;;;4998620;28;20038;-73
2021/12/02 09:12:28;;;;;;;3.30;1.10;;;2.90;99.90;;;;;;4960873;28;20046;-73
2021/12/02 09:15:09;;;;;;;2.78;1.40;;;2.80;99.90;;;;;;4961675;28;20046;-73
2021/12/02 09:17:57;;;;;;;4.60;0.90;;;2.90;99.90;;;;;;4965964;28;20043;-73
2021/12/02 09:20:29;;;;;;;3.25;1.10;;;2.80;99.90;;;;;;4991040;28;20030;-73
2021/12/02 09:23:19;;;;;;;4.05;1.17;;;2.80;99.90;;;;;;4950450;28;20038;-74
2021/12/02 09:26:40;;;;;;;6.85;6.22;;;2.80;99.90;;;;;;5000062;28;20622;-74
2021/12/02 09:29:34;;;;;;;3.70;1.23;;;2.80;99.90;;;;;;4998535;28;20053;-74
2021/12/02 09:32:26;;;;;;;3.30;1.95;;;2.90;99.90;;;;;;4995248;28;20058;-74
2021/12/02 09:35:01;;;;;;;4.75;1.88;;;2.90;99.90;;;;;;4996946;28;20046;-74
2021/12/02 09:37:55;;;;;;;3.70;2.25;;;2.90;99.90;;;;;;4983790;28;20129;-74
2021/12/02 09:41:14;;;;;;;3.40;1.40;;;3.00;99.90;;;;;;4991538;28;20042;-74
2021/12/02 09:45:02;;;;;;;4.70;2.22;;;3.10;99.90;;;;;;4999819;28;20499;-74
2021/12/02 09:47:57;;;;;;;1.77;1.00;;;3.20;99.90;;;;;;4987752;28;20182;-74
2021/12/02 09:54:26;;;;;;;6.55;4.72;;;3.20;99.90;;;;;;4944434;28;20047;-74
2021/12/02 09:58:07;;;;;;;2.92;1.08;;;3.40;99.90;;;;;;4977229;28;20058;-74
2021/12/02 10:01:41;;;;;;;7.93;4.22;;;3.50;99.90;;;;;;4937234;28;20415;-75
2021/12/02 10:05:24;;;;;;;5.43;2.33;;;3.60;99.90;;;;;;4971278;28;20070;-74
2021/12/02 10:08:38;;;;;;;6.90;2.95;;;3.80;99.90;;;;;;4958858;28;20101;-74
2021/12/02 10:11:46;;;;;;;2.80;1.40;;;3.90;99.90;;;;;;4974032;28;20093;-74
2021/12/02 10:15:15;;;;;;;3.42;1.52;;;4.00;99.90;;;;;;4977983;28;20121;-74
2021/12/02 10:18:26;;;;;;;4.28;3.35;;;4.10;99.90;;;;;;4953615;28;20073;-74
2021/12/02 10:21:24;;;;;;;5.43;2.67;;;4.30;99.90;;;;;;4981147;28;20477;-74
2021/12/02 10:25:25;;;;;;;3.55;1.40;;;4.40;99.90;;;;;;4989619;28;20045;-74
2021/12/02 10:28:42;;;;;;;2.70;1.27;;;4.40;99.90;;;;;;4979697;28;20050;-74
2021/12/02 10:32:16;;;;;;;6.18;1.13;;;4.40;99.90;;;;;;5011662;28;20042;-74
2021/12/02 10:35:10;;;;;;;4.38;0.88;;;4.40;99.90;;;;;;4890227;29;20071;-74
2021/12/02 10:37:40;;;;;;;4.90;1.00;;;4.40;99.90;;;;;;4979384;28;20050;-76
2021/12/02 10:40:19;;;;;;;1.15;0.70;;;4.40;99.90;;;;;;4985510;28;20038;-75
2021/12/02 10:42:46;;;;;;;4.25;1.08;;;4.40;99.90;;;;;;5006094;28;20048;-76
2021/12/02 10:45:25;;;;;;;7.90;1.02;;;4.40;99.90;;;;;;4990693;28;20488;-75
2021/12/02 10:47:55;;;;;;;2.10;0.73;;;4.50;99.90;;;;;;4996732;28;20061;-74
2021/12/02 10:51:10;;;;;;;3.80;0.80;;;4.50;99.90;;;;;;4990774;28;20100;-73
2021/12/02 10:54:00;;;;;;;2.72;0.63;;;4.50;99.90;;;;;;4963294;28;20034;-73
2021/12/02 10:56:35;;;;;;;1.80;0.70;;;4.40;99.90;;;;;;4994357;28;20038;-73
2021/12/02 10:59:23;;;;;;;3.00;0.60;;;4.30;99.90;;;;;;4995573;28;20129;-73
2021/12/02 11:01:49;;;;;;;2.78;0.63;;;4.30;99.90;;;;;;4992158;28;20042;-73
2021/12/02 11:04:14;;;;;;;1.10;0.50;;;4.40;99.90;;;;;;4987558;28;20038;-73
2021/12/02 11:06:44;;;;;;;2.25;0.60;;;4.50;99.90;;;;;;4989397;28;20046;-73
2021/12/02 11:09:29;;;;;;;1.42;0.60;;;4.50;99.90;;;;;;4988584;28;20081;-73
2021/12/02 11:12:16;;;;;;;1.52;0.82;;;4.30;99.90;;;;;;4991184;28;20050;-73
2021/12/02 11:14:53;;;;;;;8.35;5.03;;;4.10;99.90;;;;;;4979095;28;20038;-73
2021/12/02 11:17:20;;;;;;;5.38;1.98;;;3.90;99.90;;;;;;4990930;28;20053;-73
2021/12/02 11:19:48;;;;;;;1.13;0.95;;;3.60;99.90;;;;;;4990234;28;20150;-74
2021/12/02 11:22:20;;;;;;;1.27;1.10;;;3.50;99.90;;;;;;4990417;28;20161;-74
2021/12/02 11:24:47;;;;;;;1.40;0.60;;;3.40;99.90;;;;;;4991193;28;20050;-73
2021/12/02 11:27:18;;;;;;;0.50;0.50;;;3.40;99.90;;;;;;4990405;28;20057;-73
2021/12/02 11:29:56;;;;;;;1.33;0.50;;;3.30;99.90;;;;;;4991021;28;20046;-73
2021/12/02 11:32:43;;;;;;;0.80;0.70;;;3.30;99.90;;;;;;4987440;28;20049;-72
2021/12/02 11:35:16;;;;;;;0.90;0.90;;;3.30;99.90;;;;;;4994474;28;20580;-73
2021/12/02 11:37:46;;;;;;;1.60;0.50;;;3.30;99.90;;;;;;4989285;28;20054;-73
2021/12/02 11:40:47;;;;;;;13.55;12.23;;;3.30;99.90;;;;;;4992920;28;20042;-73
2021/12/02 11:43:24;;;;;;;3.85;3.50;;;3.40;99.90;;;;;;4990037;28;20058;-73
2021/12/02 11:45:52;;;;;;;1.75;0.80;;;3.40;99.90;;;;;;4990598;28;20093;-73
2021/12/02 11:48:19;;;;;;;1.42;1.20;;;3.40;99.90;;;;;;4979014;28;20100;-73
2021/12/02 11:50:46;;;;;;;0.85;0.60;;;3.40;99.90;;;;;;4993505;28;20049;-73
2021/12/02 11:53:14;;;;;;;2.03;0.80;;;3.40;99.90;;;;;;4993490;28;20046;-74
2021/12/02 11:55:43;;;;;;;1.02;0.60;;;3.40;99.90;;;;;;4992109;28;20049;-74
2021/12/02 11:58:09;;;;;;;1.42;0.47;;;3.50;99.90;;;;;;4993799;28;20042;-73
2021/12/02 12:00:47;;;;;;;1.23;0.60;;;3.50;99.90;;;;;;4996360;28;20061;-73
2021/12/02 12:03:36;;;;;;;1.30;0.60;;;3.60;99.90;;;;;;4987493;28;20409;-73
2021/12/02 12:06:28;;;;;;;3.58;2.47;;;3.70;99.90;;;;;;4971612;28;20050;-73
2021/12/02 12:09:00;;;;;;;2.40;2.20;;;3.80;99.90;;;;;;4987000;28;20030;-73
2021/12/02 12:11:32;;;;;;;1.33;0.75;;;3.80;99.90;;;;;;5003769;28;20046;-73
2021/12/02 12:14:07;;;;;;;1.83;0.63;;;3.80;99.90;;;;;;5002752;28;20034;-73
2021/12/02 12:16:42;;;;;;;1.05;0.57;;;3.90;99.90;;;;;;4993600;28;20066;-73
2021/12/02 12:19:37;;;;;;;2.97;0.50;;;3.90;99.90;;;;;;4971946;28;20069;-74
2021/12/02 12:22:28;;;;;;;1.60;0.57;;;3.90;99.90;;;;;;5008905;28;20043;-73
2021/12/02 12:24:57;;;;;;;0.88;0.80;;;3.90;99.90;;;;;;4969739;28;20042;-74
2021/12/02 12:27:30;;;;;;;0.70;0.50;;;3.80;99.90;;;;;;4971830;28;20117;-74
2021/12/02 12:30:24;;;;;;;1.75;0.60;;;3.80;99.90;;;;;;4971578;28;20081;-74
2021/12/02 12:33:12;;;;;;;1.25;0.70;;;3.80;99.90;;;;;;4988179;28;20047;-73
2021/12/02 12:36:05;;;;;;;1.13;0.60;;;3.80;99.90;;;;;;4971015;28;20070;-74
2021/12/02 12:38:33;;;;;;;0.70;0.40;;;3.70;99.90;;;;;;4981042;28;20100;-73
2021/12/02 12:41:12;;;;;;;2.08;0.50;;;3.80;99.90;;;;;;4995096;28;20038;-74
2021/12/02 12:43:46;;;;;;;1.10;0.50;;;3.80;99.90;;;;;;4987542;28;20489;-74
2021/12/02 12:46:32;;;;;;;1.33;0.60;;;3.80;99.90;;;;;;4970519;28;20062;-74
2021/12/02 12:49:30;;;;;;;1.20;0.70;;;3.70;99.90;;;;;;4982334;28;20106;-73
2021/12/02 12:52:03;;;;;;;1.13;0.60;;;3.70;99.90;;;;;;4988010;28;20057;-74
2021/12/02 12:54:41;;;;;;;1.30;0.50;;;3.70;99.90;;;;;;4986435;28;20081;-74
2021/12/02 12:57:16;;;;;;;2.55;0.55;;;3.70;99.90;;;;;;4979914;28;20065;-74
2021/12/02 12:59:54;;;;;;;0.70;0.60;;;3.80;99.90;;;;;;5004010;28;20089;-74
2021/12/02 13:02:39;;;;;;;1.67;0.52;;;3.90;99.90;;;;;;4970905;28;20078;-74
2021/12/02 13:05:11;;;;;;;8.18;7.20;;;4.20;99.90;;;;;;4963303;28;20046;-74
2021/12/02 13:08:16;;;;;;;16.15;11.75;;;4.40;99.90;;;;;;4978750;28;20039;-74
2021/12/02 13:11:03;;;;;;;3.10;1.20;;;5.10;99.90;;;;;;4986650;28;20354;-75
2021/12/02 13:13:47;;;;;;;;;;;6.00;99.90;;;;;;4988645;28;20042;-73
2021/12/02 13:16:17;;;;;;;2.10;1.10;;;7.10;99.90;;;;;;4969633;28;20369;-74
2021/12/02 13:19:01;;;;;;;12.15;10.30;;;7.90;99.90;;;;;;4981230;28;20294;-74
2021/12/02 13:21:30;;;;;;;0.50;0.40;;;8.70;99.90;;;;;;4973410;28;20445;-74
2021/12/02 13:23:57;;;;;;;2.63;0.73;;;9.20;99.90;;;;;;4990662;28;20034;-75
2021/12/02 13:26:55;;;;;;;2.53;1.42;;;9.80;96.00;;;;;;4993281;28;20038;-75
2021/12/02 13:30:14;;;;;;;2.67;0.90;;;10.50;93.20;;;;;;4963523;28;20075;-75
2021/12/02 13:32:46;;;;;;;2.65;0.90;;;11.40;90.10;;;;;;4975655;28;20056;-76
2021/12/02 13:35:22;;;;;;;;;;;11.50;84.70;;;;;;4992824;28;20345;-75
2021/12/02 13:38:00;;;;;;;1.85;0.85;;;11.10;82.90;;;;;;4990785;28;19976;-76
2021/12/02 13:40:33;;;;;;;1.65;1.05;;;10.50;83.10;;;;;;4991607;28;20038;-75
2021/12/02 13:42:59;;;;;;;1.25;0.60;;;9.70;83.60;;;;;;4992031;28;20077;-75
2021/12/02 13:45:26;;;;;;;2.67;0.70;;;8.90;85.90;;;;;;4992922;28;20070;-76
2021/12/02 13:48:12;;;;;;;2.78;2.13;;;8.20;90.00;;;;;;4990982;28;20038;-75
2021/12/02 13:50:41;;;;;;;1.65;1.35;;;7.80;93.30;;;;;;4992791;28;20044;-75
2021/12/02 13:53:08;;;;;;;3.72;2.40;;;7.80;94.20;;;;;;4991480;28;20456;-76
2021/12/02 13:55:37;;;;;;;3.38;1.20;;;7.80;94.70;;;;;;4985955;28;20034;-76
2021/12/02 13:58:07;;;;;;;3.20;1.50;;;7.80;94.60;;;;;;4992068;28;20045;-76
2021/12/02 14:00:38;;;;;;;1.25;0.90;;;7.80;95.20;;;;;;4985702;28;20055;-76
2021/12/02 14:03:07;;;;;;;1.35;0.30;;;7.70;95.00;;;;;;5000621;28;20556;-76